sensor_id;sensor_type;location;lat;lon;timestamp;temperature;humidity
67133;HTU21D;54052;53.542;49.408;2022-11-14T00:00:36;1.63;95.11
67133;HTU21D;54052;53.542;49.408;2022-11-14T00:03:05;1.66;94.98
67133;HTU21D;54052;53.542;49.408;2022-11-14T00:05:31;1.65;94.65
67133;HTU21D;54052;53.542;49.408;2022-11-14T00:07:58;1.66;95.28
67133;HTU21D;54052;53.542;49.408;2022-11-14T00:10:24;1.66;95.32
67133;HTU21D;54052;53.542;49.408;2022-11-14T00:12:50;1.67;95.09
67133;HTU21D;54052;53.542;49.408;2022-11-14T00:15:16;1.66;95.04
67133;HTU21D;54052;53.542;49.408;2022-11-14T00:17:42;1.67;95.01
67133;HTU21D;54052;53.542;49.408;2022-11-14T00:20:10;1.63;95.09
67133;HTU21D;54052;53.542;49.408;2022-11-14T00:22:36;1.64;95.05
67133;HTU21D;54052;53.542;49.408;2022-11-14T00:25:03;1.62;94.94
67133;HTU21D;54052;53.542;49.408;2022-11-14T00:27:35;1.65;95.10
67133;HTU21D;54052;53.542;49.408;2022-11-14T00:30:02;1.66;94.88
67133;HTU21D;54052;53.542;49.408;2022-11-14T00:32:28;1.69;95.20
67133;HTU21D;54052;53.542;49.408;2022-11-14T00:34:55;1.69;94.91
67133;HTU21D;54052;53.542;49.408;2022-11-14T00:37:21;1.71;94.95
67133;HTU21D;54052;53.542;49.408;2022-11-14T00:39:47;1.71;95.04
67133;HTU21D;54052;53.542;49.408;2022-11-14T00:42:13;1.72;94.78
67133;HTU21D;54052;53.542;49.408;2022-11-14T00:44:39;1.71;94.34
67133;HTU21D;54052;53.542;49.408;2022-11-14T00:47:05;1.72;94.45
67133;HTU21D;54052;53.542;49.408;2022-11-14T00:49:31;1.72;94.99
67133;HTU21D;54052;53.542;49.408;2022-11-14T00:51:57;1.76;95.20
67133;HTU21D;54052;53.542;49.408;2022-11-14T00:54:23;1.77;95.04
67133;HTU21D;54052;53.542;49.408;2022-11-14T00:56:51;1.79;95.05
67133;HTU21D;54052;53.542;49.408;2022-11-14T00:59:17;1.82;93.91
67133;HTU21D;54052;53.542;49.408;2022-11-14T01:01:46;1.83;94.01
67133;HTU21D;54052;53.542;49.408;2022-11-14T01:04:12;1.83;94.44
67133;HTU21D;54052;53.542;49.408;2022-11-14T01:06:38;1.84;94.60
67133;HTU21D;54052;53.542;49.408;2022-11-14T01:09:04;1.84;94.38
67133;HTU21D;54052;53.542;49.408;2022-11-14T01:11:30;1.86;94.30
67133;HTU21D;54052;53.542;49.408;2022-11-14T01:13:56;1.87;94.08
67133;HTU21D;54052;53.542;49.408;2022-11-14T01:16:22;1.86;93.90
67133;HTU21D;54052;53.542;49.408;2022-11-14T01:18:48;1.84;94.40
67133;HTU21D;54052;53.542;49.408;2022-11-14T01:21:15;1.79;94.15
67133;HTU21D;54052;53.542;49.408;2022-11-14T01:23:41;1.76;94.82
67133;HTU21D;54052;53.542;49.408;2022-11-14T01:26:10;1.76;94.86
67133;HTU21D;54052;53.542;49.408;2022-11-14T01:28:36;1.78;94.85
67133;HTU21D;54052;53.542;49.408;2022-11-14T01:33:41;1.78;94.62
67133;HTU21D;54052;53.542;49.408;2022-11-14T01:36:08;1.81;94.39
67133;HTU21D;54052;53.542;49.408;2022-11-14T01:38:35;1.85;94.01
67133;HTU21D;54052;53.542;49.408;2022-11-14T01:41:02;1.88;93.33
67133;HTU21D;54052;53.542;49.408;2022-11-14T01:43:33;1.88;93.72
67133;HTU21D;54052;53.542;49.408;2022-11-14T01:53:38;1.85;92.72
67133;HTU21D;54052;53.542;49.408;2022-11-14T01:56:06;1.85;92.59
67133;HTU21D;54052;53.542;49.408;2022-11-14T01:58:36;1.86;93.06
67133;HTU21D;54052;53.542;49.408;2022-11-14T02:01:03;1.84;92.68
67133;HTU21D;54052;53.542;49.408;2022-11-14T02:03:30;1.83;92.72
67133;HTU21D;54052;53.542;49.408;2022-11-14T02:05:57;1.84;92.69
67133;HTU21D;54052;53.542;49.408;2022-11-14T02:08:24;1.85;92.24
67133;HTU21D;54052;53.542;49.408;2022-11-14T02:10:50;1.86;92.73
67133;HTU21D;54052;53.542;49.408;2022-11-14T02:13:16;1.84;92.62
67133;HTU21D;54052;53.542;49.408;2022-11-14T02:15:42;1.86;92.67
67133;HTU21D;54052;53.542;49.408;2022-11-14T02:18:09;1.84;92.46
67133;HTU21D;54052;53.542;49.408;2022-11-14T02:20:37;1.85;91.88
67133;HTU21D;54052;53.542;49.408;2022-11-14T02:23:09;1.85;92.45
67133;HTU21D;54052;53.542;49.408;2022-11-14T02:25:35;1.86;92.21
67133;HTU21D;54052;53.542;49.408;2022-11-14T02:28:02;1.86;91.86
67133;HTU21D;54052;53.542;49.408;2022-11-14T02:30:28;1.87;91.56
67133;HTU21D;54052;53.542;49.408;2022-11-14T02:32:54;1.85;92.13
67133;HTU21D;54052;53.542;49.408;2022-11-14T02:35:21;1.83;92.13
67133;HTU21D;54052;53.542;49.408;2022-11-14T02:37:47;1.82;92.46
67133;HTU21D;54052;53.542;49.408;2022-11-14T02:40:13;1.80;92.53
67133;HTU21D;54052;53.542;49.408;2022-11-14T02:42:41;1.79;92.57
67133;HTU21D;54052;53.542;49.408;2022-11-14T02:45:08;1.77;93.19
67133;HTU21D;54052;53.542;49.408;2022-11-14T02:47:35;1.72;94.01
67133;HTU21D;54052;53.542;49.408;2022-11-14T02:50:01;1.71;94.09
67133;HTU21D;54052;53.542;49.408;2022-11-14T02:52:27;1.72;94.01
67133;HTU21D;54052;53.542;49.408;2022-11-14T02:54:53;1.73;94.55
67133;HTU21D;54052;53.542;49.408;2022-11-14T02:57:20;1.75;93.82
67133;HTU21D;54052;53.542;49.408;2022-11-14T02:59:46;1.78;93.63
67133;HTU21D;54052;53.542;49.408;2022-11-14T03:02:12;1.78;93.65
67133;HTU21D;54052;53.542;49.408;2022-11-14T03:04:38;1.80;93.33
67133;HTU21D;54052;53.542;49.408;2022-11-14T03:07:04;1.82;92.84
67133;HTU21D;54052;53.542;49.408;2022-11-14T03:09:31;1.86;92.74
67133;HTU21D;54052;53.542;49.408;2022-11-14T03:11:57;1.88;91.64
67133;HTU21D;54052;53.542;49.408;2022-11-14T03:14:23;1.90;91.41
67133;HTU21D;54052;53.542;49.408;2022-11-14T03:16:49;1.91;91.50
67133;HTU21D;54052;53.542;49.408;2022-11-14T03:19:15;1.90;91.72
67133;HTU21D;54052;53.542;49.408;2022-11-14T03:21:41;1.88;92.07
67133;HTU21D;54052;53.542;49.408;2022-11-14T03:24:07;1.82;92.63
67133;HTU21D;54052;53.542;49.408;2022-11-14T03:26:33;1.78;92.84
67133;HTU21D;54052;53.542;49.408;2022-11-14T03:28:59;1.75;92.62
67133;HTU21D;54052;53.542;49.408;2022-11-14T03:31:25;1.71;92.61
67133;HTU21D;54052;53.542;49.408;2022-11-14T03:33:51;1.70;92.82
67133;HTU21D;54052;53.542;49.408;2022-11-14T03:36:17;1.71;91.79
67133;HTU21D;54052;53.542;49.408;2022-11-14T03:38:46;1.70;92.44
67133;HTU21D;54052;53.542;49.408;2022-11-14T03:41:12;1.70;92.37
67133;HTU21D;54052;53.542;49.408;2022-11-14T03:43:38;1.70;92.07
67133;HTU21D;54052;53.542;49.408;2022-11-14T03:46:04;1.70;91.21
67133;HTU21D;54052;53.542;49.408;2022-11-14T03:48:30;1.72;91.34
67133;HTU21D;54052;53.542;49.408;2022-11-14T03:50:57;1.75;90.92
67133;HTU21D;54052;53.542;49.408;2022-11-14T03:53:49;1.72;91.38
67133;HTU21D;54052;53.542;49.408;2022-11-14T03:56:15;1.73;91.26
67133;HTU21D;54052;53.542;49.408;2022-11-14T03:58:42;1.70;91.78
67133;HTU21D;54052;53.542;49.408;2022-11-14T04:01:08;1.70;91.15
67133;HTU21D;54052;53.542;49.408;2022-11-14T04:03:34;1.65;91.53
67133;HTU21D;54052;53.542;49.408;2022-11-14T04:06:05;1.58;91.05
67133;HTU21D;54052;53.542;49.408;2022-11-14T04:08:31;1.54;91.98
67133;HTU21D;54052;53.542;49.408;2022-11-14T04:10:57;1.48;92.14
67133;HTU21D;54052;53.542;49.408;2022-11-14T04:13:23;1.46;91.83
67133;HTU21D;54052;53.542;49.408;2022-11-14T04:16:02;1.47;91.81
67133;HTU21D;54052;53.542;49.408;2022-11-14T04:18:29;1.45;91.11
67133;HTU21D;54052;53.542;49.408;2022-11-14T04:20:55;1.46;91.10
67133;HTU21D;54052;53.542;49.408;2022-11-14T04:23:21;1.46;91.53
67133;HTU21D;54052;53.542;49.408;2022-11-14T04:25:47;1.46;91.49
67133;HTU21D;54052;53.542;49.408;2022-11-14T04:28:13;1.47;91.14
67133;HTU21D;54052;53.542;49.408;2022-11-14T04:30:39;1.38;90.90
67133;HTU21D;54052;53.542;49.408;2022-11-14T04:33:06;1.35;90.08
67133;HTU21D;54052;53.542;49.408;2022-11-14T04:35:32;1.35;91.11
67133;HTU21D;54052;53.542;49.408;2022-11-14T04:37:58;1.36;89.02
67133;HTU21D;54052;53.542;49.408;2022-11-14T04:40:24;1.36;89.05
67133;HTU21D;54052;53.542;49.408;2022-11-14T04:42:50;1.34;88.92
67133;HTU21D;54052;53.542;49.408;2022-11-14T04:45:16;1.33;89.82
67133;HTU21D;54052;53.542;49.408;2022-11-14T04:47:42;1.37;90.41
67133;HTU21D;54052;53.542;49.408;2022-11-14T04:50:09;1.29;91.37
67133;HTU21D;54052;53.542;49.408;2022-11-14T04:52:35;1.19;91.15
67133;HTU21D;54052;53.542;49.408;2022-11-14T04:55:01;1.19;92.63
67133;HTU21D;54052;53.542;49.408;2022-11-14T04:57:27;1.18;93.04
67133;HTU21D;54052;53.542;49.408;2022-11-14T04:59:53;1.02;93.47
67133;HTU21D;54052;53.542;49.408;2022-11-14T05:02:19;0.96;93.67
67133;HTU21D;54052;53.542;49.408;2022-11-14T05:04:46;1.01;93.30
67133;HTU21D;54052;53.542;49.408;2022-11-14T05:07:13;1.11;92.11
67133;HTU21D;54052;53.542;49.408;2022-11-14T05:09:40;1.07;93.05
67133;HTU21D;54052;53.542;49.408;2022-11-14T05:12:06;1.01;94.04
67133;HTU21D;54052;53.542;49.408;2022-11-14T05:14:33;0.92;94.58
67133;HTU21D;54052;53.542;49.408;2022-11-14T05:16:59;0.87;94.13
67133;HTU21D;54052;53.542;49.408;2022-11-14T05:19:25;0.77;95.36
67133;HTU21D;54052;53.542;49.408;2022-11-14T05:21:51;0.80;95.30
67133;HTU21D;54052;53.542;49.408;2022-11-14T05:24:17;0.92;95.04
67133;HTU21D;54052;53.542;49.408;2022-11-14T05:26:44;0.79;95.04
67133;HTU21D;54052;53.542;49.408;2022-11-14T05:29:10;0.71;96.25
67133;HTU21D;54052;53.542;49.408;2022-11-14T05:31:39;0.57;96.81
67133;HTU21D;54052;53.542;49.408;2022-11-14T05:34:05;0.57;97.00
67133;HTU21D;54052;53.542;49.408;2022-11-14T05:36:31;0.54;97.45
67133;HTU21D;54052;53.542;49.408;2022-11-14T05:38:57;0.52;97.69
67133;HTU21D;54052;53.542;49.408;2022-11-14T05:41:23;0.55;97.46
67133;HTU21D;54052;53.542;49.408;2022-11-14T05:43:49;0.52;97.36
67133;HTU21D;54052;53.542;49.408;2022-11-14T05:46:16;0.45;97.49
67133;HTU21D;54052;53.542;49.408;2022-11-14T05:48:42;0.42;97.58
67133;HTU21D;54052;53.542;49.408;2022-11-14T05:51:12;0.34;97.42
67133;HTU21D;54052;53.542;49.408;2022-11-14T05:53:39;0.37;97.61
67133;HTU21D;54052;53.542;49.408;2022-11-14T05:56:10;0.36;97.65
67133;HTU21D;54052;53.542;49.408;2022-11-14T05:58:37;0.33;97.64
67133;HTU21D;54052;53.542;49.408;2022-11-14T06:03:38;0.31;97.83
67133;HTU21D;54052;53.542;49.408;2022-11-14T06:06:06;0.31;97.61
67133;HTU21D;54052;53.542;49.408;2022-11-14T06:08:33;0.32;96.83
67133;HTU21D;54052;53.542;49.408;2022-11-14T06:11:08;0.33;96.03
67133;HTU21D;54052;53.542;49.408;2022-11-14T06:13:35;0.34;95.70
67133;HTU21D;54052;53.542;49.408;2022-11-14T06:18:48;0.44;94.72
67133;HTU21D;54052;53.542;49.408;2022-11-14T06:21:19;0.51;94.41
67133;HTU21D;54052;53.542;49.408;2022-11-14T06:23:46;0.54;93.33
67133;HTU21D;54052;53.542;49.408;2022-11-14T06:26:29;0.53;92.63
67133;HTU21D;54052;53.542;49.408;2022-11-14T06:28:55;0.53;92.58
67133;HTU21D;54052;53.542;49.408;2022-11-14T06:31:22;0.59;91.39
67133;HTU21D;54052;53.542;49.408;2022-11-14T06:34:03;0.62;91.01
67133;HTU21D;54052;53.542;49.408;2022-11-14T06:36:39;0.66;90.15
67133;HTU21D;54052;53.542;49.408;2022-11-14T06:39:05;0.78;89.16
67133;HTU21D;54052;53.542;49.408;2022-11-14T06:41:31;0.81;86.89
67133;HTU21D;54052;53.542;49.408;2022-11-14T06:43:57;0.90;85.86
67133;HTU21D;54052;53.542;49.408;2022-11-14T06:46:23;0.88;85.44
67133;HTU21D;54052;53.542;49.408;2022-11-14T06:48:50;0.88;86.06
67133;HTU21D;54052;53.542;49.408;2022-11-14T06:51:17;0.86;85.57
67133;HTU21D;54052;53.542;49.408;2022-11-14T06:53:44;0.86;85.21
67133;HTU21D;54052;53.542;49.408;2022-11-14T06:56:13;0.96;82.96
67133;HTU21D;54052;53.542;49.408;2022-11-14T06:58:42;1.02;82.69
67133;HTU21D;54052;53.542;49.408;2022-11-14T07:01:20;1.08;82.50
67133;HTU21D;54052;53.542;49.408;2022-11-14T07:03:47;1.10;81.94
67133;HTU21D;54052;53.542;49.408;2022-11-14T07:06:16;1.06;78.86
67133;HTU21D;54052;53.542;49.408;2022-11-14T07:08:42;1.08;77.60
67133;HTU21D;54052;53.542;49.408;2022-11-14T07:11:14;1.02;78.08
67133;HTU21D;54052;53.542;49.408;2022-11-14T07:13:55;1.09;78.28
67133;HTU21D;54052;53.542;49.408;2022-11-14T07:16:33;1.08;77.66
67133;HTU21D;54052;53.542;49.408;2022-11-14T07:19:04;1.08;77.44
67133;HTU21D;54052;53.542;49.408;2022-11-14T07:21:32;1.14;76.40
67133;HTU21D;54052;53.542;49.408;2022-11-14T07:23:58;1.19;79.46
67133;HTU21D;54052;53.542;49.408;2022-11-14T07:26:25;0.95;82.94
67133;HTU21D;54052;53.542;49.408;2022-11-14T07:28:51;0.76;83.33
67133;HTU21D;54052;53.542;49.408;2022-11-14T07:31:18;0.53;84.28
67133;HTU21D;54052;53.542;49.408;2022-11-14T07:33:45;0.21;86.22
67133;HTU21D;54052;53.542;49.408;2022-11-14T07:36:13;0.06;88.36
67133;HTU21D;54052;53.542;49.408;2022-11-14T07:38:39;0.02;88.80
67133;HTU21D;54052;53.542;49.408;2022-11-14T07:43:31;0.23;86.95
67133;HTU21D;54052;53.542;49.408;2022-11-14T07:46:02;0.29;86.29
67133;HTU21D;54052;53.542;49.408;2022-11-14T07:48:29;0.27;85.22
67133;HTU21D;54052;53.542;49.408;2022-11-14T07:51:02;0.25;84.68
67133;HTU21D;54052;53.542;49.408;2022-11-14T07:53:29;0.24;84.27
67133;HTU21D;54052;53.542;49.408;2022-11-14T07:55:56;0.19;85.03
67133;HTU21D;54052;53.542;49.408;2022-11-14T07:58:26;0.12;85.73
67133;HTU21D;54052;53.542;49.408;2022-11-14T08:00:52;0.14;85.00
67133;HTU21D;54052;53.542;49.408;2022-11-14T08:03:18;0.17;86.14
67133;HTU21D;54052;53.542;49.408;2022-11-14T08:05:44;0.19;81.43
67133;HTU21D;54052;53.542;49.408;2022-11-14T08:08:10;0.22;82.44
67133;HTU21D;54052;53.542;49.408;2022-11-14T08:10:37;0.30;80.57
67133;HTU21D;54052;53.542;49.408;2022-11-14T08:13:04;0.36;80.73
67133;HTU21D;54052;53.542;49.408;2022-11-14T08:15:31;0.37;81.23
67133;HTU21D;54052;53.542;49.408;2022-11-14T08:17:58;0.12;86.41
67133;HTU21D;54052;53.542;49.408;2022-11-14T08:20:25;-0.12;88.35
67133;HTU21D;54052;53.542;49.408;2022-11-14T08:23:02;-0.32;89.83
67133;HTU21D;54052;53.542;49.408;2022-11-14T08:25:29;-0.36;89.10
67133;HTU21D;54052;53.542;49.408;2022-11-14T08:27:55;-0.31;87.37
67133;HTU21D;54052;53.542;49.408;2022-11-14T08:30:23;-0.26;85.58
67133;HTU21D;54052;53.542;49.408;2022-11-14T08:32:50;-0.31;89.12
67133;HTU21D;54052;53.542;49.408;2022-11-14T08:35:16;-0.37;88.22
67133;HTU21D;54052;53.542;49.408;2022-11-14T08:37:42;-0.25;87.52
67133;HTU21D;54052;53.542;49.408;2022-11-14T08:40:08;-0.15;83.35
67133;HTU21D;54052;53.542;49.408;2022-11-14T08:42:35;-0.13;83.30
67133;HTU21D;54052;53.542;49.408;2022-11-14T08:45:02;-0.13;83.41
67133;HTU21D;54052;53.542;49.408;2022-11-14T08:47:28;-0.15;82.62
67133;HTU21D;54052;53.542;49.408;2022-11-14T08:49:54;-0.21;82.61
67133;HTU21D;54052;53.542;49.408;2022-11-14T08:52:30;-0.28;81.81
67133;HTU21D;54052;53.542;49.408;2022-11-14T08:54:56;-0.34;81.29
67133;HTU21D;54052;53.542;49.408;2022-11-14T08:57:22;-0.42;83.48
67133;HTU21D;54052;53.542;49.408;2022-11-14T08:59:48;-0.45;84.74
67133;HTU21D;54052;53.542;49.408;2022-11-14T09:02:15;-0.52;85.35
67133;HTU21D;54052;53.542;49.408;2022-11-14T09:04:41;-0.60;88.57
67133;HTU21D;54052;53.542;49.408;2022-11-14T09:07:07;-0.69;90.05
67133;HTU21D;54052;53.542;49.408;2022-11-14T09:09:33;-0.81;89.37
67133;HTU21D;54052;53.542;49.408;2022-11-14T09:11:59;-0.91;91.22
67133;HTU21D;54052;53.542;49.408;2022-11-14T09:14:25;-1.02;90.16
67133;HTU21D;54052;53.542;49.408;2022-11-14T09:16:51;-1.05;89.95
67133;HTU21D;54052;53.542;49.408;2022-11-14T09:19:17;-0.98;90.00
67133;HTU21D;54052;53.542;49.408;2022-11-14T09:21:43;-1.04;89.77
67133;HTU21D;54052;53.542;49.408;2022-11-14T09:24:09;-1.13;90.95
67133;HTU21D;54052;53.542;49.408;2022-11-14T09:26:36;-1.25;91.09
67133;HTU21D;54052;53.542;49.408;2022-11-14T09:29:02;-1.32;91.21
67133;HTU21D;54052;53.542;49.408;2022-11-14T09:31:31;-1.41;89.86
67133;HTU21D;54052;53.542;49.408;2022-11-14T09:33:57;-1.38;89.04
67133;HTU21D;54052;53.542;49.408;2022-11-14T09:36:23;-1.31;87.72
67133;HTU21D;54052;53.542;49.408;2022-11-14T09:38:50;-1.29;85.17
67133;HTU21D;54052;53.542;49.408;2022-11-14T09:44:31;-1.40;84.50
67133;HTU21D;54052;53.542;49.408;2022-11-14T09:50:02;-1.39;85.42
67133;HTU21D;54052;53.542;49.408;2022-11-14T09:57:36;-1.35;79.91
67133;HTU21D;54052;53.542;49.408;2022-11-14T10:00:21;-1.33;81.82
67133;HTU21D;54052;53.542;49.408;2022-11-14T10:13:44;-1.42;78.46
67133;HTU21D;54052;53.542;49.408;2022-11-14T10:16:33;-1.42;76.72
67133;HTU21D;54052;53.542;49.408;2022-11-14T10:19:03;-1.48;77.21
67133;HTU21D;54052;53.542;49.408;2022-11-14T10:21:49;-1.52;76.98
67133;HTU21D;54052;53.542;49.408;2022-11-14T10:27:32;-1.60;74.09
67133;HTU21D;54052;53.542;49.408;2022-11-14T10:32:42;-1.64;71.80
67133;HTU21D;54052;53.542;49.408;2022-11-14T10:36:26;-1.68;72.33
67133;HTU21D;54052;53.542;49.408;2022-11-14T10:38:46;-1.71;72.55
67133;HTU21D;54052;53.542;49.408;2022-11-14T10:41:15;-1.75;73.00
67133;HTU21D;54052;53.542;49.408;2022-11-14T10:43:43;-1.76;72.87
67133;HTU21D;54052;53.542;49.408;2022-11-14T10:48:42;-1.78;72.82
67133;HTU21D;54052;53.542;49.408;2022-11-14T10:51:19;-1.82;74.20
67133;HTU21D;54052;53.542;49.408;2022-11-14T10:56:53;-1.79;72.48
67133;HTU21D;54052;53.542;49.408;2022-11-14T10:59:20;-1.80;71.28
67133;HTU21D;54052;53.542;49.408;2022-11-14T11:06:53;-1.86;68.87
67133;HTU21D;54052;53.542;49.408;2022-11-14T11:09:24;-1.89;68.89
67133;HTU21D;54052;53.542;49.408;2022-11-14T11:12:21;-1.92;68.03
67133;HTU21D;54052;53.542;49.408;2022-11-14T11:15:37;-1.97;67.93
67133;HTU21D;54052;53.542;49.408;2022-11-14T11:17:35;-1.88;69.90
67133;HTU21D;54052;53.542;49.408;2022-11-14T11:20:23;-1.94;67.09
67133;HTU21D;54052;53.542;49.408;2022-11-14T11:23:13;-1.94;67.98
67133;HTU21D;54052;53.542;49.408;2022-11-14T11:25:42;-1.95;66.54
67133;HTU21D;54052;53.542;49.408;2022-11-14T11:28:15;-1.95;67.65
67133;HTU21D;54052;53.542;49.408;2022-11-14T11:31:08;-2.00;69.11
67133;HTU21D;54052;53.542;49.408;2022-11-14T11:33:39;-2.09;69.55
67133;HTU21D;54052;53.542;49.408;2022-11-14T11:36:19;-2.18;69.99
67133;HTU21D;54052;53.542;49.408;2022-11-14T11:38:46;-2.22;68.26
67133;HTU21D;54052;53.542;49.408;2022-11-14T11:41:36;-2.19;70.27
67133;HTU21D;54052;53.542;49.408;2022-11-14T11:44:11;-2.21;67.51
67133;HTU21D;54052;53.542;49.408;2022-11-14T11:46:55;-2.27;68.94
67133;HTU21D;54052;53.542;49.408;2022-11-14T11:49:34;-2.26;68.81
67133;HTU21D;54052;53.542;49.408;2022-11-14T11:52:16;-2.26;67.75
67133;HTU21D;54052;53.542;49.408;2022-11-14T12:00:32;-2.30;71.86
67133;HTU21D;54052;53.542;49.408;2022-11-14T12:02:59;-2.29;70.55
67133;HTU21D;54052;53.542;49.408;2022-11-14T12:08:29;-2.34;71.74
67133;HTU21D;54052;53.542;49.408;2022-11-14T12:10:57;-2.31;70.99
67133;HTU21D;54052;53.542;49.408;2022-11-14T12:13:40;-2.27;72.26
67133;HTU21D;54052;53.542;49.408;2022-11-14T12:21:58;-2.02;71.82
67133;HTU21D;54052;53.542;49.408;2022-11-14T12:24:57;-2.03;72.38
67133;HTU21D;54052;53.542;49.408;2022-11-14T12:27:54;-2.08;71.38
67133;HTU21D;54052;53.542;49.408;2022-11-14T12:30:24;-2.12;71.39
67133;HTU21D;54052;53.542;49.408;2022-11-14T12:33:03;-2.22;71.75
67133;HTU21D;54052;53.542;49.408;2022-11-14T12:35:34;-2.22;69.81
67133;HTU21D;54052;53.542;49.408;2022-11-14T12:38:12;-2.31;71.11
67133;HTU21D;54052;53.542;49.408;2022-11-14T12:40:40;-2.20;69.33
67133;HTU21D;54052;53.542;49.408;2022-11-14T12:46:00;-2.32;72.04
67133;HTU21D;54052;53.542;49.408;2022-11-14T12:50:56;-2.33;70.29
67133;HTU21D;54052;53.542;49.408;2022-11-14T13:07:28;-2.48;70.72
67133;HTU21D;54052;53.542;49.408;2022-11-14T13:10:23;-2.75;72.41
67133;HTU21D;54052;53.542;49.408;2022-11-14T13:13:07;-2.80;73.19
67133;HTU21D;54052;53.542;49.408;2022-11-14T13:15:52;-2.80;71.81
67133;HTU21D;54052;53.542;49.408;2022-11-14T13:19:02;-2.81;73.24
67133;HTU21D;54052;53.542;49.408;2022-11-14T13:30:01;-2.71;70.48
67133;HTU21D;54052;53.542;49.408;2022-11-14T13:35:16;-2.64;70.41
67133;HTU21D;54052;53.542;49.408;2022-11-14T13:43:19;-2.63;70.39
67133;HTU21D;54052;53.542;49.408;2022-11-14T13:48:31;-2.66;66.81
67133;HTU21D;54052;53.542;49.408;2022-11-14T13:51:05;-2.72;67.99
67133;HTU21D;54052;53.542;49.408;2022-11-14T13:53:32;-2.73;66.94
67133;HTU21D;54052;53.542;49.408;2022-11-14T13:56:07;-2.68;68.01
67133;HTU21D;54052;53.542;49.408;2022-11-14T14:04:11;-2.52;65.23
67133;HTU21D;54052;53.542;49.408;2022-11-14T14:07:01;-2.49;63.26
67133;HTU21D;54052;53.542;49.408;2022-11-14T14:12:09;-2.41;62.66
67133;HTU21D;54052;53.542;49.408;2022-11-14T14:26:53;-2.35;65.66
67133;HTU21D;54052;53.542;49.408;2022-11-14T14:29:28;-2.33;66.94
67133;HTU21D;54052;53.542;49.408;2022-11-14T14:32:14;-2.33;65.41
67133;HTU21D;54052;53.542;49.408;2022-11-14T14:34:41;-2.36;66.47
67133;HTU21D;54052;53.542;49.408;2022-11-14T14:37:30;-2.46;65.62
67133;HTU21D;54052;53.542;49.408;2022-11-14T14:40:01;-2.50;65.10
67133;HTU21D;54052;53.542;49.408;2022-11-14T14:42:44;-2.58;63.34
67133;HTU21D;54052;53.542;49.408;2022-11-14T14:45:16;-2.59;65.14
67133;HTU21D;54052;53.542;49.408;2022-11-14T14:47:45;-2.58;65.53
67133;HTU21D;54052;53.542;49.408;2022-11-14T14:50:21;-2.62;66.40
67133;HTU21D;54052;53.542;49.408;2022-11-14T14:52:57;-2.77;68.52
67133;HTU21D;54052;53.542;49.408;2022-11-14T14:55:28;-2.87;70.29
67133;HTU21D;54052;53.542;49.408;2022-11-14T14:57:54;-2.87;69.56
67133;HTU21D;54052;53.542;49.408;2022-11-14T15:00:23;-2.77;68.71
67133;HTU21D;54052;53.542;49.408;2022-11-14T15:02:55;-2.73;65.50
67133;HTU21D;54052;53.542;49.408;2022-11-14T15:05:26;-2.60;64.59
67133;HTU21D;54052;53.542;49.408;2022-11-14T15:07:58;-2.58;61.96
67133;HTU21D;54052;53.542;49.408;2022-11-14T15:10:29;-2.57;59.37
67133;HTU21D;54052;53.542;49.408;2022-11-14T15:12:56;-2.54;60.85
67133;HTU21D;54052;53.542;49.408;2022-11-14T15:15:23;-2.52;60.60
67133;HTU21D;54052;53.542;49.408;2022-11-14T15:18:07;-2.50;61.53
67133;HTU21D;54052;53.542;49.408;2022-11-14T15:20:38;-2.48;63.38
67133;HTU21D;54052;53.542;49.408;2022-11-14T15:23:18;-2.59;66.27
67133;HTU21D;54052;53.542;49.408;2022-11-14T15:25:45;-2.71;65.82
67133;HTU21D;54052;53.542;49.408;2022-11-14T15:28:18;-2.76;64.34
67133;HTU21D;54052;53.542;49.408;2022-11-14T15:31:04;-2.76;65.09
67133;HTU21D;54052;53.542;49.408;2022-11-14T15:33:33;-2.75;66.38
67133;HTU21D;54052;53.542;49.408;2022-11-14T15:36:18;-2.77;64.02
67133;HTU21D;54052;53.542;49.408;2022-11-14T15:38:57;-2.79;64.13
67133;HTU21D;54052;53.542;49.408;2022-11-14T15:41:25;-2.81;64.98
67133;HTU21D;54052;53.542;49.408;2022-11-14T15:43:55;-2.83;66.58
67133;HTU21D;54052;53.542;49.408;2022-11-14T15:49:00;-2.83;66.09
67133;HTU21D;54052;53.542;49.408;2022-11-14T15:51:45;-2.75;65.75
67133;HTU21D;54052;53.542;49.408;2022-11-14T15:54:34;-2.73;66.47
67133;HTU21D;54052;53.542;49.408;2022-11-14T15:57:13;-2.69;64.47
67133;HTU21D;54052;53.542;49.408;2022-11-14T15:59:39;-2.69;62.92
67133;HTU21D;54052;53.542;49.408;2022-11-14T16:02:17;-2.72;62.47
67133;HTU21D;54052;53.542;49.408;2022-11-14T16:04:44;-2.71;64.45
67133;HTU21D;54052;53.542;49.408;2022-11-14T16:07:12;-2.69;64.27
67133;HTU21D;54052;53.542;49.408;2022-11-14T16:09:39;-2.69;62.24
67133;HTU21D;54052;53.542;49.408;2022-11-14T16:12:05;-2.68;63.69
67133;HTU21D;54052;53.542;49.408;2022-11-14T16:14:32;-2.65;62.60
67133;HTU21D;54052;53.542;49.408;2022-11-14T16:16:58;-2.62;60.69
67133;HTU21D;54052;53.542;49.408;2022-11-14T16:19:24;-2.65;61.30
67133;HTU21D;54052;53.542;49.408;2022-11-14T16:21:50;-2.65;58.06
67133;HTU21D;54052;53.542;49.408;2022-11-14T16:24:21;-2.65;60.17
67133;HTU21D;54052;53.542;49.408;2022-11-14T16:26:48;-2.68;59.20
67133;HTU21D;54052;53.542;49.408;2022-11-14T16:29:15;-2.73;56.75
67133;HTU21D;54052;53.542;49.408;2022-11-14T16:31:41;-2.75;58.49
67133;HTU21D;54052;53.542;49.408;2022-11-14T16:34:17;-2.75;57.61
67133;HTU21D;54052;53.542;49.408;2022-11-14T16:36:43;-2.78;58.55
67133;HTU21D;54052;53.542;49.408;2022-11-14T16:39:11;-2.81;56.74
67133;HTU21D;54052;53.542;49.408;2022-11-14T16:41:39;-2.86;56.25
67133;HTU21D;54052;53.542;49.408;2022-11-14T16:44:05;-2.92;56.55
67133;HTU21D;54052;53.542;49.408;2022-11-14T16:46:31;-2.94;58.62
67133;HTU21D;54052;53.542;49.408;2022-11-14T16:48:57;-3.01;56.52
67133;HTU21D;54052;53.542;49.408;2022-11-14T16:51:24;-3.01;57.43
67133;HTU21D;54052;53.542;49.408;2022-11-14T16:53:54;-2.98;57.06
67133;HTU21D;54052;53.542;49.408;2022-11-14T16:56:20;-3.02;57.52
67133;HTU21D;54052;53.542;49.408;2022-11-14T16:58:46;-2.97;58.21
67133;HTU21D;54052;53.542;49.408;2022-11-14T17:01:13;-2.93;57.58
67133;HTU21D;54052;53.542;49.408;2022-11-14T17:04:09;-2.93;56.54
67133;HTU21D;54052;53.542;49.408;2022-11-14T17:06:35;-2.91;57.25
67133;HTU21D;54052;53.542;49.408;2022-11-14T17:09:01;-2.92;58.68
67133;HTU21D;54052;53.542;49.408;2022-11-14T17:14:13;-2.98;58.99
67133;HTU21D;54052;53.542;49.408;2022-11-14T17:16:40;-3.00;60.14
67133;HTU21D;54052;53.542;49.408;2022-11-14T17:19:06;-3.06;59.96
67133;HTU21D;54052;53.542;49.408;2022-11-14T17:21:32;-3.08;59.40
67133;HTU21D;54052;53.542;49.408;2022-11-14T17:24:00;-3.09;58.70
67133;HTU21D;54052;53.542;49.408;2022-11-14T17:26:29;-3.08;59.99
67133;HTU21D;54052;53.542;49.408;2022-11-14T17:28:55;-3.07;60.51
67133;HTU21D;54052;53.542;49.408;2022-11-14T17:31:21;-2.97;61.47
67133;HTU21D;54052;53.542;49.408;2022-11-14T17:33:52;-2.96;58.67
67133;HTU21D;54052;53.542;49.408;2022-11-14T17:36:19;-3.02;58.58
67133;HTU21D;54052;53.542;49.408;2022-11-14T17:38:45;-3.04;59.85
67133;HTU21D;54052;53.542;49.408;2022-11-14T17:41:11;-3.00;59.84